sensor_id;sensor_type;location;lat;lon;timestamp;P1;durP1;ratioP1;P2;durP2;ratioP2
75890;SDS011;64571;47.512;19.054;2023-02-28T00:00:44;19.02;;;9.13;;
75890;SDS011;64571;47.512;19.054;2023-02-28T00:03:47;20.83;;;8.63;;
75890;SDS011;64571;47.512;19.054;2023-02-28T00:06:50;18.23;;;8.10;;
75890;SDS011;64571;47.512;19.054;2023-02-28T00:09:52;16.42;;;7.85;;
75890;SDS011;64571;47.512;19.054;2023-02-28T00:12:56;19.08;;;7.65;;
75890;SDS011;64571;47.512;19.054;2023-02-28T00:16:04;14.80;;;7.62;;
75890;SDS011;64571;47.512;19.054;2023-02-28T00:19:12;18.90;;;7.67;;
75890;SDS011;64571;47.512;19.054;2023-02-28T00:22:15;15.25;;;7.53;;
75890;SDS011;64571;47.512;19.054;2023-02-28T00:25:23;16.85;;;7.45;;
75890;SDS011;64571;47.512;19.054;2023-02-28T00:28:27;20.50;;;8.48;;
75890;SDS011;64571;47.512;19.054;2023-02-28T00:31:30;17.70;;;7.68;;
75890;SDS011;64571;47.512;19.054;2023-02-28T00:34:32;17.03;;;8.10;;
75890;SDS011;64571;47.512;19.054;2023-02-28T00:37:39;17.25;;;7.30;;
75890;SDS011;64571;47.512;19.054;2023-02-28T00:40:42;14.20;;;6.55;;
75890;SDS011;64571;47.512;19.054;2023-02-28T00:43:45;17.37;;;7.43;;
75890;SDS011;64571;47.512;19.054;2023-02-28T00:46:48;18.37;;;7.60;;
75890;SDS011;64571;47.512;19.054;2023-02-28T00:49:50;19.50;;;8.50;;
75890;SDS011;64571;47.512;19.054;2023-02-28T00:52:53;17.15;;;6.55;;
75890;SDS011;64571;47.512;19.054;2023-02-28T00:55:55;15.23;;;6.78;;
75890;SDS011;64571;47.512;19.054;2023-02-28T00:58:58;14.43;;;6.90;;
75890;SDS011;64571;47.512;19.054;2023-02-28T01:02:00;15.85;;;7.47;;
75890;SDS011;64571;47.512;19.054;2023-02-28T01:05:03;16.20;;;7.10;;
75890;SDS011;64571;47.512;19.054;2023-02-28T01:08:06;12.63;;;5.82;;
75890;SDS011;64571;47.512;19.054;2023-02-28T01:11:12;15.32;;;6.72;;
75890;SDS011;64571;47.512;19.054;2023-02-28T01:14:17;15.27;;;6.75;;
75890;SDS011;64571;47.512;19.054;2023-02-28T01:17:20;18.20;;;7.75;;
75890;SDS011;64571;47.512;19.054;2023-02-28T01:20:22;18.53;;;8.10;;
75890;SDS011;64571;47.512;19.054;2023-02-28T01:23:25;17.95;;;6.93;;
75890;SDS011;64571;47.512;19.054;2023-02-28T01:26:27;19.52;;;8.35;;
75890;SDS011;64571;47.512;19.054;2023-02-28T01:29:30;17.08;;;8.32;;
75890;SDS011;64571;47.512;19.054;2023-02-28T01:32:32;20.67;;;8.88;;
75890;SDS011;64571;47.512;19.054;2023-02-28T01:35:35;19.70;;;8.93;;
75890;SDS011;64571;47.512;19.054;2023-02-28T01:38:38;20.98;;;8.80;;
75890;SDS011;64571;47.512;19.054;2023-02-28T01:41:41;20.45;;;9.43;;
75890;SDS011;64571;47.512;19.054;2023-02-28T01:45:00;20.60;;;9.05;;
75890;SDS011;64571;47.512;19.054;2023-02-28T01:48:07;20.88;;;9.50;;
75890;SDS011;64571;47.512;19.054;2023-02-28T01:51:11;22.53;;;10.43;;
75890;SDS011;64571;47.512;19.054;2023-02-28T01:54:30;20.20;;;9.73;;
75890;SDS011;64571;47.512;19.054;2023-02-28T01:57:37;21.20;;;9.60;;
75890;SDS011;64571;47.512;19.054;2023-02-28T02:00:43;24.55;;;10.02;;
75890;SDS011;64571;47.512;19.054;2023-02-28T02:04:01;22.73;;;9.98;;
75890;SDS011;64571;47.512;19.054;2023-02-28T02:07:04;18.93;;;9.37;;
75890;SDS011;64571;47.512;19.054;2023-02-28T02:20:10;19.92;;;8.60;;
75890;SDS011;64571;47.512;19.054;2023-02-28T02:23:35;17.73;;;7.63;;
75890;SDS011;64571;47.512;19.054;2023-02-28T02:30:50;19.05;;;8.13;;
75890;SDS011;64571;47.512;19.054;2023-02-28T02:37:17;19.67;;;9.18;;
75890;SDS011;64571;47.512;19.054;2023-02-28T02:44:43;18.90;;;8.32;;
75890;SDS011;64571;47.512;19.054;2023-02-28T02:47:46;21.30;;;8.70;;
75890;SDS011;64571;47.512;19.054;2023-02-28T02:50:54;22.15;;;9.23;;
75890;SDS011;64571;47.512;19.054;2023-02-28T02:54:04;21.30;;;8.73;;
75890;SDS011;64571;47.512;19.054;2023-02-28T02:58:02;20.40;;;9.13;;
75890;SDS011;64571;47.512;19.054;2023-02-28T03:00:50;21.20;;;8.52;;
75890;SDS011;64571;47.512;19.054;2023-02-28T03:03:56;18.75;;;8.07;;
75890;SDS011;64571;47.512;19.054;2023-02-28T03:07:01;19.33;;;8.20;;
75890;SDS011;64571;47.512;19.054;2023-02-28T03:10:25;20.23;;;9.38;;
75890;SDS011;64571;47.512;19.054;2023-02-28T03:23:14;19.75;;;8.40;;
75890;SDS011;64571;47.512;19.054;2023-02-28T03:26:22;19.23;;;9.55;;
75890;SDS011;64571;47.512;19.054;2023-02-28T03:29:35;18.03;;;8.37;;
75890;SDS011;64571;47.512;19.054;2023-02-28T03:36:10;18.70;;;8.43;;
75890;SDS011;64571;47.512;19.054;2023-02-28T03:39:18;21.45;;;8.55;;
75890;SDS011;64571;47.512;19.054;2023-02-28T03:42:27;19.15;;;9.73;;
75890;SDS011;64571;47.512;19.054;2023-02-28T03:45:32;19.03;;;9.63;;
75890;SDS011;64571;47.512;19.054;2023-02-28T03:48:40;18.52;;;8.52;;
75890;SDS011;64571;47.512;19.054;2023-02-28T03:51:48;18.20;;;7.85;;
75890;SDS011;64571;47.512;19.054;2023-02-28T03:54:52;15.27;;;7.12;;
75890;SDS011;64571;47.512;19.054;2023-02-28T04:01:40;17.70;;;7.17;;
75890;SDS011;64571;47.512;19.054;2023-02-28T04:04:45;20.55;;;7.93;;
75890;SDS011;64571;47.512;19.054;2023-02-28T04:07:50;18.80;;;7.40;;
75890;SDS011;64571;47.512;19.054;2023-02-28T04:10:55;14.23;;;6.32;;
75890;SDS011;64571;47.512;19.054;2023-02-28T04:14:03;14.43;;;6.55;;
75890;SDS011;64571;47.512;19.054;2023-02-28T04:17:07;15.93;;;7.57;;
75890;SDS011;64571;47.512;19.054;2023-02-28T04:20:09;16.10;;;6.75;;
75890;SDS011;64571;47.512;19.054;2023-02-28T04:23:13;16.60;;;5.75;;
75890;SDS011;64571;47.512;19.054;2023-02-28T04:26:16;15.85;;;5.95;;
75890;SDS011;64571;47.512;19.054;2023-02-28T04:29:20;17.85;;;6.70;;
75890;SDS011;64571;47.512;19.054;2023-02-28T04:32:24;15.13;;;6.13;;
75890;SDS011;64571;47.512;19.054;2023-02-28T04:35:27;15.45;;;6.05;;
75890;SDS011;64571;47.512;19.054;2023-02-28T04:38:30;11.73;;;5.80;;
75890;SDS011;64571;47.512;19.054;2023-02-28T04:41:35;15.25;;;6.05;;
75890;SDS011;64571;47.512;19.054;2023-02-28T04:44:37;12.25;;;5.32;;
75890;SDS011;64571;47.512;19.054;2023-02-28T04:47:40;13.47;;;6.43;;
75890;SDS011;64571;47.512;19.054;2023-02-28T04:50:42;13.77;;;6.07;;
75890;SDS011;64571;47.512;19.054;2023-02-28T04:53:46;14.00;;;7.22;;
75890;SDS011;64571;47.512;19.054;2023-02-28T04:56:50;13.50;;;6.30;;
75890;SDS011;64571;47.512;19.054;2023-02-28T04:59:52;17.58;;;6.07;;
75890;SDS011;64571;47.512;19.054;2023-02-28T05:02:55;12.60;;;5.37;;
75890;SDS011;64571;47.512;19.054;2023-02-28T05:05:57;14.50;;;6.18;;
75890;SDS011;64571;47.512;19.054;2023-02-28T05:09:00;13.88;;;5.97;;
75890;SDS011;64571;47.512;19.054;2023-02-28T05:12:03;15.00;;;6.35;;
75890;SDS011;64571;47.512;19.054;2023-02-28T05:15:05;12.70;;;5.68;;
75890;SDS011;64571;47.512;19.054;2023-02-28T05:18:08;15.57;;;6.00;;
75890;SDS011;64571;47.512;19.054;2023-02-28T05:21:28;12.80;;;5.75;;
75890;SDS011;64571;47.512;19.054;2023-02-28T05:24:33;15.27;;;5.90;;
75890;SDS011;64571;47.512;19.054;2023-02-28T05:27:35;17.58;;;6.50;;
75890;SDS011;64571;47.512;19.054;2023-02-28T05:30:38;14.60;;;5.72;;
75890;SDS011;64571;47.512;19.054;2023-02-28T05:33:40;12.87;;;5.03;;
75890;SDS011;64571;47.512;19.054;2023-02-28T05:36:43;17.37;;;5.75;;
75890;SDS011;64571;47.512;19.054;2023-02-28T05:39:46;12.55;;;5.82;;
75890;SDS011;64571;47.512;19.054;2023-02-28T05:42:50;11.25;;;5.00;;
75890;SDS011;64571;47.512;19.054;2023-02-28T05:45:52;15.27;;;6.12;;
75890;SDS011;64571;47.512;19.054;2023-02-28T05:48:55;14.43;;;5.53;;
75890;SDS011;64571;47.512;19.054;2023-02-28T05:51:59;14.27;;;6.00;;
75890;SDS011;64571;47.512;19.054;2023-02-28T05:55:02;16.50;;;7.30;;
75890;SDS011;64571;47.512;19.054;2023-02-28T05:58:05;12.90;;;4.90;;
75890;SDS011;64571;47.512;19.054;2023-02-28T06:01:21;12.43;;;5.70;;
75890;SDS011;64571;47.512;19.054;2023-02-28T06:04:38;13.10;;;5.63;;
75890;SDS011;64571;47.512;19.054;2023-02-28T06:07:40;15.25;;;5.95;;
75890;SDS011;64571;47.512;19.054;2023-02-28T06:10:43;14.82;;;5.72;;
75890;SDS011;64571;47.512;19.054;2023-02-28T06:13:45;13.82;;;4.95;;
75890;SDS011;64571;47.512;19.054;2023-02-28T06:16:48;12.40;;;5.87;;
75890;SDS011;64571;47.512;19.054;2023-02-28T06:19:51;13.03;;;5.40;;
75890;SDS011;64571;47.512;19.054;2023-02-28T06:22:53;11.63;;;5.68;;
75890;SDS011;64571;47.512;19.054;2023-02-28T06:25:57;12.95;;;5.60;;
75890;SDS011;64571;47.512;19.054;2023-02-28T06:29:00;12.48;;;5.95;;
75890;SDS011;64571;47.512;19.054;2023-02-28T06:32:03;16.10;;;5.62;;
75890;SDS011;64571;47.512;19.054;2023-02-28T06:35:06;12.67;;;4.97;;
75890;SDS011;64571;47.512;19.054;2023-02-28T06:38:08;13.62;;;5.70;;
75890;SDS011;64571;47.512;19.054;2023-02-28T06:41:11;13.20;;;5.10;;
75890;SDS011;64571;47.512;19.054;2023-02-28T06:44:16;11.80;;;4.65;;
75890;SDS011;64571;47.512;19.054;2023-02-28T06:47:20;12.52;;;4.95;;
75890;SDS011;64571;47.512;19.054;2023-02-28T06:50:23;10.83;;;4.33;;
75890;SDS011;64571;47.512;19.054;2023-02-28T06:53:26;12.35;;;4.90;;
75890;SDS011;64571;47.512;19.054;2023-02-28T06:56:28;9.00;;;4.25;;
75890;SDS011;64571;47.512;19.054;2023-02-28T06:59:31;12.57;;;5.10;;
75890;SDS011;64571;47.512;19.054;2023-02-28T07:02:34;10.15;;;4.43;;
75890;SDS011;64571;47.512;19.054;2023-02-28T07:05:37;11.50;;;4.70;;
75890;SDS011;64571;47.512;19.054;2023-02-28T07:08:40;14.15;;;5.97;;
75890;SDS011;64571;47.512;19.054;2023-02-28T07:11:43;13.62;;;5.53;;
75890;SDS011;64571;47.512;19.054;2023-02-28T07:14:45;14.43;;;4.75;;
75890;SDS011;64571;47.512;19.054;2023-02-28T07:17:48;14.25;;;5.40;;
75890;SDS011;64571;47.512;19.054;2023-02-28T07:20:50;14.93;;;5.17;;
75890;SDS011;64571;47.512;19.054;2023-02-28T07:23:55;14.32;;;5.62;;
75890;SDS011;64571;47.512;19.054;2023-02-28T07:26:58;13.45;;;5.28;;
75890;SDS011;64571;47.512;19.054;2023-02-28T07:30:01;13.05;;;5.80;;
75890;SDS011;64571;47.512;19.054;2023-02-28T07:33:05;9.93;;;4.45;;
75890;SDS011;64571;47.512;19.054;2023-02-28T07:36:09;11.30;;;5.17;;
75890;SDS011;64571;47.512;19.054;2023-02-28T07:39:17;10.88;;;4.90;;
75890;SDS011;64571;47.512;19.054;2023-02-28T07:42:19;12.15;;;5.62;;
75890;SDS011;64571;47.512;19.054;2023-02-28T07:45:23;11.38;;;4.30;;
75890;SDS011;64571;47.512;19.054;2023-02-28T07:48:26;26.50;;;9.57;;
75890;SDS011;64571;47.512;19.054;2023-02-28T07:51:29;12.10;;;5.80;;
75890;SDS011;64571;47.512;19.054;2023-02-28T07:54:33;11.20;;;4.68;;
75890;SDS011;64571;47.512;19.054;2023-02-28T07:57:35;14.30;;;6.05;;
75890;SDS011;64571;47.512;19.054;2023-02-28T08:00:38;16.27;;;5.50;;
75890;SDS011;64571;47.512;19.054;2023-02-28T08:03:41;11.38;;;5.70;;
75890;SDS011;64571;47.512;19.054;2023-02-28T08:06:44;12.80;;;5.37;;
75890;SDS011;64571;47.512;19.054;2023-02-28T08:09:47;13.32;;;5.62;;
75890;SDS011;64571;47.512;19.054;2023-02-28T08:12:49;18.23;;;5.87;;
75890;SDS011;64571;47.512;19.054;2023-02-28T08:15:52;11.77;;;5.00;;
75890;SDS011;64571;47.512;19.054;2023-02-28T08:18:58;13.90;;;5.28;;
75890;SDS011;64571;47.512;19.054;2023-02-28T08:22:00;13.63;;;5.57;;
75890;SDS011;64571;47.512;19.054;2023-02-28T08:25:03;13.10;;;5.47;;
75890;SDS011;64571;47.512;19.054;2023-02-28T08:28:06;15.27;;;5.43;;
75890;SDS011;64571;47.512;19.054;2023-02-28T08:31:09;13.77;;;5.82;;
75890;SDS011;64571;47.512;19.054;2023-02-28T08:34:14;10.43;;;5.22;;
75890;SDS011;64571;47.512;19.054;2023-02-28T08:37:17;13.00;;;5.47;;
75890;SDS011;64571;47.512;19.054;2023-02-28T08:40:20;11.98;;;4.85;;
75890;SDS011;64571;47.512;19.054;2023-02-28T08:43:22;12.35;;;4.97;;
75890;SDS011;64571;47.512;19.054;2023-02-28T08:46:25;12.07;;;5.10;;
75890;SDS011;64571;47.512;19.054;2023-02-28T08:49:28;13.90;;;5.60;;
75890;SDS011;64571;47.512;19.054;2023-02-28T08:52:31;11.03;;;4.17;;
75890;SDS011;64571;47.512;19.054;2023-02-28T08:55:34;14.95;;;4.37;;
75890;SDS011;64571;47.512;19.054;2023-02-28T08:58:37;10.70;;;4.97;;
75890;SDS011;64571;47.512;19.054;2023-02-28T09:01:40;13.05;;;5.43;;
75890;SDS011;64571;47.512;19.054;2023-02-28T09:04:43;10.45;;;4.53;;
75890;SDS011;64571;47.512;19.054;2023-02-28T09:07:49;12.17;;;4.90;;
75890;SDS011;64571;47.512;19.054;2023-02-28T09:10:52;12.77;;;6.50;;
75890;SDS011;64571;47.512;19.054;2023-02-28T09:13:57;19.02;;;5.43;;
75890;SDS011;64571;47.512;19.054;2023-02-28T09:17:00;14.30;;;5.30;;
75890;SDS011;64571;47.512;19.054;2023-02-28T09:20:03;14.45;;;5.32;;
75890;SDS011;64571;47.512;19.054;2023-02-28T09:23:07;11.20;;;5.10;;
75890;SDS011;64571;47.512;19.054;2023-02-28T09:26:14;11.35;;;5.12;;
75890;SDS011;64571;47.512;19.054;2023-02-28T09:29:18;17.52;;;4.82;;
75890;SDS011;64571;47.512;19.054;2023-02-28T09:32:20;11.12;;;5.03;;
75890;SDS011;64571;47.512;19.054;2023-02-28T09:35:24;12.80;;;4.82;;
75890;SDS011;64571;47.512;19.054;2023-02-28T09:38:28;12.70;;;5.30;;
75890;SDS011;64571;47.512;19.054;2023-02-28T09:41:38;12.60;;;4.82;;
75890;SDS011;64571;47.512;19.054;2023-02-28T09:44:49;10.73;;;4.93;;
75890;SDS011;64571;47.512;19.054;2023-02-28T09:47:54;13.60;;;5.60;;
75890;SDS011;64571;47.512;19.054;2023-02-28T09:51:02;12.43;;;5.47;;
75890;SDS011;64571;47.512;19.054;2023-02-28T09:54:10;11.87;;;5.27;;
75890;SDS011;64571;47.512;19.054;2023-02-28T10:00:39;14.73;;;5.10;;
75890;SDS011;64571;47.512;19.054;2023-02-28T10:03:44;11.63;;;5.28;;
75890;SDS011;64571;47.512;19.054;2023-02-28T10:07:18;11.32;;;5.45;;
75890;SDS011;64571;47.512;19.054;2023-02-28T10:10:24;15.80;;;5.03;;
75890;SDS011;64571;47.512;19.054;2023-02-28T10:16:44;10.27;;;5.03;;
75890;SDS011;64571;47.512;19.054;2023-02-28T10:23:24;12.57;;;5.03;;
75890;SDS011;64571;47.512;19.054;2023-02-28T10:26:31;11.37;;;4.77;;
75890;SDS011;64571;47.512;19.054;2023-02-28T10:29:35;12.32;;;4.68;;
75890;SDS011;64571;47.512;19.054;2023-02-28T10:32:37;10.05;;;4.50;;
75890;SDS011;64571;47.512;19.054;2023-02-28T10:35:42;16.58;;;5.90;;
75890;SDS011;64571;47.512;19.054;2023-02-28T10:38:45;11.98;;;4.57;;
75890;SDS011;64571;47.512;19.054;2023-02-28T10:41:49;10.03;;;4.00;;
75890;SDS011;64571;47.512;19.054;2023-02-28T10:51:19;13.18;;;5.12;;
75890;SDS011;64571;47.512;19.054;2023-02-28T10:54:27;9.65;;;4.55;;
75890;SDS011;64571;47.512;19.054;2023-02-28T10:57:32;16.37;;;4.87;;
75890;SDS011;64571;47.512;19.054;2023-02-28T11:00:40;8.90;;;4.50;;
75890;SDS011;64571;47.512;19.054;2023-02-28T11:03:42;10.57;;;4.40;;
75890;SDS011;64571;47.512;19.054;2023-02-28T11:06:45;11.48;;;4.60;;
75890;SDS011;64571;47.512;19.054;2023-02-28T11:09:50;11.10;;;4.10;;
75890;SDS011;64571;47.512;19.054;2023-02-28T11:12:55;10.77;;;4.63;;
75890;SDS011;64571;47.512;19.054;2023-02-28T11:16:05;10.90;;;4.32;;
75890;SDS011;64571;47.512;19.054;2023-02-28T11:19:16;15.32;;;4.75;;
75890;SDS011;64571;47.512;19.054;2023-02-28T11:22:23;10.30;;;4.15;;
75890;SDS011;64571;47.512;19.054;2023-02-28T11:25:32;8.65;;;4.10;;
75890;SDS011;64571;47.512;19.054;2023-02-28T11:28:38;10.37;;;4.63;;
75890;SDS011;64571;47.512;19.054;2023-02-28T11:31:42;12.25;;;5.03;;
75890;SDS011;64571;47.512;19.054;2023-02-28T11:34:45;9.85;;;4.55;;
75890;SDS011;64571;47.512;19.054;2023-02-28T11:38:02;13.20;;;5.40;;
75890;SDS011;64571;47.512;19.054;2023-02-28T11:48:04;12.05;;;5.65;;
75890;SDS011;64571;47.512;19.054;2023-02-28T11:51:32;13.15;;;5.87;;
75890;SDS011;64571;47.512;19.054;2023-02-28T12:01:07;12.67;;;5.30;;
75890;SDS011;64571;47.512;19.054;2023-02-28T12:18:21;11.63;;;5.20;;
75890;SDS011;64571;47.512;19.054;2023-02-28T12:22:17;12.73;;;5.40;;
75890;SDS011;64571;47.512;19.054;2023-02-28T12:28:28;10.18;;;5.78;;
75890;SDS011;64571;47.512;19.054;2023-02-28T12:31:36;12.95;;;5.53;;
75890;SDS011;64571;47.512;19.054;2023-02-28T12:35:04;12.37;;;5.77;;
75890;SDS011;64571;47.512;19.054;2023-02-28T12:38:31;12.82;;;5.22;;
75890;SDS011;64571;47.512;19.054;2023-02-28T12:48:24;11.50;;;5.43;;
75890;SDS011;64571;47.512;19.054;2023-02-28T12:51:31;10.70;;;5.07;;
75890;SDS011;64571;47.512;19.054;2023-02-28T12:54:42;12.57;;;4.35;;
75890;SDS011;64571;47.512;19.054;2023-02-28T13:10:48;12.70;;;5.35;;
75890;SDS011;64571;47.512;19.054;2023-02-28T13:14:00;9.43;;;4.15;;
75890;SDS011;64571;47.512;19.054;2023-02-28T13:20:16;14.43;;;4.57;;
75890;SDS011;64571;47.512;19.054;2023-02-28T13:23:38;10.40;;;4.20;;
75890;SDS011;64571;47.512;19.054;2023-02-28T13:29:52;9.48;;;4.32;;
75890;SDS011;64571;47.512;19.054;2023-02-28T13:36:37;9.48;;;4.53;;
75890;SDS011;64571;47.512;19.054;2023-02-28T13:46:06;12.05;;;4.28;;
75890;SDS011;64571;47.512;19.054;2023-02-28T13:52:25;12.48;;;4.30;;
75890;SDS011;64571;47.512;19.054;2023-02-28T14:02:03;9.73;;;4.40;;
75890;SDS011;64571;47.512;19.054;2023-02-28T14:05:24;8.77;;;4.62;;
75890;SDS011;64571;47.512;19.054;2023-02-28T14:08:28;12.10;;;4.47;;
75890;SDS011;64571;47.512;19.054;2023-02-28T14:11:32;11.67;;;4.93;;
75890;SDS011;64571;47.512;19.054;2023-02-28T14:17:42;11.27;;;4.60;;
75890;SDS011;64571;47.512;19.054;2023-02-28T14:20:46;11.57;;;4.70;;
75890;SDS011;64571;47.512;19.054;2023-02-28T14:37:16;9.88;;;4.90;;
75890;SDS011;64571;47.512;19.054;2023-02-28T14:40:30;11.32;;;4.78;;
75890;SDS011;64571;47.512;19.054;2023-02-28T14:43:35;10.60;;;4.90;;
75890;SDS011;64571;47.512;19.054;2023-02-28T14:46:39;9.80;;;4.40;;
75890;SDS011;64571;47.512;19.054;2023-02-28T14:49:44;11.02;;;4.90;;
75890;SDS011;64571;47.512;19.054;2023-02-28T14:52:51;13.32;;;4.62;;
75890;SDS011;64571;47.512;19.054;2023-02-28T14:55:56;10.63;;;5.15;;
75890;SDS011;64571;47.512;19.054;2023-02-28T14:58:58;11.30;;;5.20;;
75890;SDS011;64571;47.512;19.054;2023-02-28T15:02:18;15.23;;;5.07;;
75890;SDS011;64571;47.512;19.054;2023-02-28T15:05:25;11.25;;;4.50;;
75890;SDS011;64571;47.512;19.054;2023-02-28T15:08:32;14.23;;;4.50;;
75890;SDS011;64571;47.512;19.054;2023-02-28T15:11:38;11.98;;;4.50;;
75890;SDS011;64571;47.512;19.054;2023-02-28T15:14:42;11.77;;;5.20;;
75890;SDS011;64571;47.512;19.054;2023-02-28T15:17:48;10.48;;;5.07;;
75890;SDS011;64571;47.512;19.054;2023-02-28T15:20:54;12.80;;;5.50;;
75890;SDS011;64571;47.512;19.054;2023-02-28T15:23:59;10.20;;;4.97;;
75890;SDS011;64571;47.512;19.054;2023-02-28T15:27:05;14.85;;;5.03;;
75890;SDS011;64571;47.512;19.054;2023-02-28T15:30:21;12.93;;;5.30;;
75890;SDS011;64571;47.512;19.054;2023-02-28T15:33:33;11.88;;;4.80;;
75890;SDS011;64571;47.512;19.054;2023-02-28T15:36:36;10.95;;;4.47;;
75890;SDS011;64571;47.512;19.054;2023-02-28T15:39:41;13.43;;;5.00;;
75890;SDS011;64571;47.512;19.054;2023-02-28T15:42:59;13.00;;;5.20;;
75890;SDS011;64571;47.512;19.054;2023-02-28T15:46:06;15.00;;;5.73;;
75890;SDS011;64571;47.512;19.054;2023-02-28T15:49:18;15.85;;;5.95;;
75890;SDS011;64571;47.512;19.054;2023-02-28T15:52:28;10.32;;;4.65;;
75890;SDS011;64571;47.512;19.054;2023-02-28T15:55:35;16.08;;;6.32;;
75890;SDS011;64571;47.512;19.054;2023-02-28T15:58:39;14.20;;;6.82;;
75890;SDS011;64571;47.512;19.054;2023-02-28T16:01:43;14.83;;;5.93;;
75890;SDS011;64571;47.512;19.054;2023-02-28T16:08:22;14.10;;;5.25;;
75890;SDS011;64571;47.512;19.054;2023-02-28T16:11:25;12.82;;;6.25;;
75890;SDS011;64571;47.512;19.054;2023-02-28T16:14:28;10.40;;;5.10;;
75890;SDS011;64571;47.512;19.054;2023-02-28T16:17:34;17.07;;;7.30;;
75890;SDS011;64571;47.512;19.054;2023-02-28T16:20:39;16.20;;;5.87;;
75890;SDS011;64571;47.512;19.054;2023-02-28T16:23:42;13.57;;;6.32;;
75890;SDS011;64571;47.512;19.054;2023-02-28T16:26:46;11.95;;;5.62;;
75890;SDS011;64571;47.512;19.054;2023-02-28T16:29:53;12.63;;;5.90;;
75890;SDS011;64571;47.512;19.054;2023-02-28T16:32:56;16.97;;;6.63;;
75890;SDS011;64571;47.512;19.054;2023-02-28T16:35:59;14.98;;;6.57;;
75890;SDS011;64571;47.512;19.054;2023-02-28T16:39:02;15.90;;;5.72;;
75890;SDS011;64571;47.512;19.054;2023-02-28T16:42:05;20.90;;;6.30;;
75890;SDS011;64571;47.512;19.054;2023-02-28T16:45:18;12.20;;;5.82;;
75890;SDS011;64571;47.512;19.054;2023-02-28T16:48:24;18.90;;;5.73;;
75890;SDS011;64571;47.512;19.054;2023-02-28T16:51:27;12.73;;;5.75;;
75890;SDS011;64571;47.512;19.054;2023-02-28T16:54:30;13.13;;;6.50;;
75890;SDS011;64571;47.512;19.054;2023-02-28T16:57:33;14.60;;;6.07;;
75890;SDS011;64571;47.512;19.054;2023-02-28T17:00:35;12.30;;;6.00;;
75890;SDS011;64571;47.512;19.054;2023-02-28T17:03:39;18.60;;;6.23;;
75890;SDS011;64571;47.512;19.054;2023-02-28T17:06:42;15.77;;;6.55;;
75890;SDS011;64571;47.512;19.054;2023-02-28T17:09:45;12.98;;;6.03;;
75890;SDS011;64571;47.512;19.054;2023-02-28T17:12:48;13.27;;;6.40;;
75890;SDS011;64571;47.512;19.054;2023-02-28T17:15:51;13.80;;;6.40;;
75890;SDS011;64571;47.512;19.054;2023-02-28T17:19:01;15.20;;;6.63;;
75890;SDS011;64571;47.512;19.054;2023-02-28T17:22:07;13.50;;;6.18;;
75890;SDS011;64571;47.512;19.054;2023-02-28T17:25:10;18.00;;;7.10;;
75890;SDS011;64571;47.512;19.054;2023-02-28T17:28:13;16.50;;;7.07;;
75890;SDS011;64571;47.512;19.054;2023-02-28T17:31:15;18.00;;;7.15;;
75890;SDS011;64571;47.512;19.054;2023-02-28T17:34:18;17.37;;;7.27;;
75890;SDS011;64571;47.512;19.054;2023-02-28T17:37:21;20.15;;;7.60;;
75890;SDS011;64571;47.512;19.054;2023-02-28T17:40:24;15.50;;;7.43;;
75890;SDS011;64571;47.512;19.054;2023-02-28T17:43:27;15.40;;;7.20;;
75890;SDS011;64571;47.512;19.054;2023-02-28T17:46:30;15.45;;;7.15;;
75890;SDS011;64571;47.512;19.054;2023-02-28T17:49:33;14.93;;;7.10;;
75890;SDS011;64571;47.512;19.054;2023-02-28T17:52:36;16.58;;;7.18;;
75890;SDS011;64571;47.512;19.054;2023-02-28T17:55:38;19.75;;;7.40;;
75890;SDS011;64571;47.512;19.054;2023-02-28T17:58:42;16.52;;;7.90;;
75890;SDS011;64571;47.512;19.054;2023-02-28T18:01:44;15.15;;;6.95;;
75890;SDS011;64571;47.512;19.054;2023-02-28T18:04:47;15.43;;;7.30;;
75890;SDS011;64571;47.512;19.054;2023-02-28T18:07:50;14.55;;;7.10;;
75890;SDS011;64571;47.512;19.054;2023-02-28T18:10:53;17.00;;;6.80;;
75890;SDS011;64571;47.512;19.054;2023-02-28T18:13:56;16.98;;;7.28;;
75890;SDS011;64571;47.512;19.054;2023-02-28T18:16:59;18.37;;;8.05;;
75890;SDS011;64571;47.512;19.054;2023-02-28T18:20:01;16.13;;;7.63;;
75890;SDS011;64571;47.512;19.054;2023-02-28T18:23:05;17.65;;;7.70;;
75890;SDS011;64571;47.512;19.054;2023-02-28T18:26:08;17.20;;;7.80;;
75890;SDS011;64571;47.512;19.054;2023-02-28T18:29:15;14.40;;;7.40;;
75890;SDS011;64571;47.512;19.054;2023-02-28T18:32:20;17.42;;;8.27;;
75890;SDS011;64571;47.512;19.054;2023-02-28T18:35:23;16.97;;;7.93;;
75890;SDS011;64571;47.512;19.054;2023-02-28T18:38:36;16.65;;;7.37;;
75890;SDS011;64571;47.512;19.054;2023-02-28T18:41:38;15.40;;;7.18;;
75890;SDS011;64571;47.512;19.054;2023-02-28T18:44:41;18.10;;;7.18;;
75890;SDS011;64571;47.512;19.054;2023-02-28T18:47:44;16.77;;;7.80;;
75890;SDS011;64571;47.512;19.054;2023-02-28T18:50:46;15.60;;;6.63;;
75890;SDS011;64571;47.512;19.054;2023-02-28T18:53:49;18.27;;;7.22;;
75890;SDS011;64571;47.512;19.054;2023-02-28T18:56:52;16.50;;;7.53;;
75890;SDS011;64571;47.512;19.054;2023-02-28T18:59:56;15.85;;;6.93;;
75890;SDS011;64571;47.512;19.054;2023-02-28T19:02:58;18.08;;;6.97;;
75890;SDS011;64571;47.512;19.054;2023-02-28T19:06:01;16.13;;;7.57;;
75890;SDS011;64571;47.512;19.054;2023-02-28T19:09:03;18.15;;;8.65;;
75890;SDS011;64571;47.512;19.054;2023-02-28T19:12:06;15.60;;;7.00;;
75890;SDS011;64571;47.512;19.054;2023-02-28T19:15:09;15.93;;;7.37;;
75890;SDS011;64571;47.512;19.054;2023-02-28T19:18:13;20.23;;;8.35;;
75890;SDS011;64571;47.512;19.054;2023-02-28T19:21:16;15.83;;;7.60;;
75890;SDS011;64571;47.512;19.054;2023-02-28T19:24:20;16.00;;;7.80;;
75890;SDS011;64571;47.512;19.054;2023-02-28T19:27:22;15.70;;;7.62;;
75890;SDS011;64571;47.512;19.054;2023-02-28T19:30:25;18.35;;;7.90;;
75890;SDS011;64571;47.512;19.054;2023-02-28T19:33:27;18.90;;;7.80;;
75890;SDS011;64571;47.512;19.054;2023-02-28T19:36:31;17.53;;;7.47;;
75890;SDS011;64571;47.512;19.054;2023-02-28T19:39:34;15.70;;;7.55;;
75890;SDS011;64571;47.512;19.054;2023-02-28T19:42:42;19.42;;;7.72;;
75890;SDS011;64571;47.512;19.054;2023-02-28T19:45:45;16.65;;;7.78;;
75890;SDS011;64571;47.512;19.054;2023-02-28T19:48:48;18.77;;;7.43;;
75890;SDS011;64571;47.512;19.054;2023-02-28T19:51:53;22.00;;;7.60;;
75890;SDS011;64571;47.512;19.054;2023-02-28T19:54:56;15.65;;;7.15;;
75890;SDS011;64571;47.512;19.054;2023-02-28T19:57:58;17.30;;;7.70;;
75890;SDS011;64571;47.512;19.054;2023-02-28T20:01:14;17.62;;;8.02;;
75890;SDS011;64571;47.512;19.054;2023-02-28T20:04:19;16.85;;;7.68;;
75890;SDS011;64571;47.512;19.054;2023-02-28T20:07:21;15.20;;;7.40;;
75890;SDS011;64571;47.512;19.054;2023-02-28T20:10:24;15.98;;;7.53;;
75890;SDS011;64571;47.512;19.054;2023-02-28T20:13:27;18.85;;;7.28;;
75890;SDS011;64571;47.512;19.054;2023-02-28T20:16:30;16.87;;;7.57;;
75890;SDS011;64571;47.512;19.054;2023-02-28T20:19:33;16.42;;;7.00;;
75890;SDS011;64571;47.512;19.054;2023-02-28T20:22:36;17.20;;;7.80;;
75890;SDS011;64571;47.512;19.054;2023-02-28T20:25:40;17.67;;;7.47;;
75890;SDS011;64571;47.512;19.054;2023-02-28T20:28:42;18.35;;;8.00;;
75890;SDS011;64571;47.512;19.054;2023-02-28T20:31:45;16.33;;;7.85;;
75890;SDS011;64571;47.512;19.054;2023-02-28T20:34:48;15.80;;;7.22;;